»·PEaware :: TPX1021 KNYL-KSNA

TPX1021 :: KNYL-KSNA

FLIGHT INFORMATION

Flight Status: Arrived
Operator: ATP Experience
More flights by this operator :: More flights under this callsign
Pilot: Dave P. (45)
Aircraft: DEHAVILLAND DASH 8 400
(DH8D)
More flights by this aircraft type
Origin: KNYL Yuma MCAS/Yuma Intl
United States
Destination: KSNA John Wayne-Orange Co
United States
More flights between these airports :: More routes between these airports
Route: +BZA TRM PSP KAYOH7
File this flight plan on PilotEdge
Remarks:
Altitude:
(Current/Filed)
24,000ft
Speed:
(Current/Filed)
324kts
Departed: 30-May-19 06:36 PM
Arrived: 30-May-19 07:25 PM
Distance/Time
Traveled:
175nm/0:49
Distance/Time
To Go:
Arrived

Flight Plot

Page will automatically refresh every two minutes.

Flight plan parsing failed; only flown route is shown


Map Options




Map Legend


Flown Route
Filed Route
Departure Airport
Arrival Airport
Navaid (VOR, NDB)
Fix

Horizontal Profiles

Position Reports

Time Latitude Longitude Heading Altitude Ground
Speed
30-May-19 17:50 32.667936 -114.599450 0 223ft 0kts
30-May-19 17:51 32.667936 -114.599450 0 223ft 0kts
30-May-19 17:52 32.667936 -114.599450 0 223ft 0kts
30-May-19 17:53 32.667936 -114.599450 0 223ft 0kts
30-May-19 17:54 32.667936 -114.599450 0 223ft 0kts
30-May-19 17:55 32.667936 -114.599450 0 223ft 0kts
30-May-19 17:56 32.667936 -114.599450 0 223ft 0kts
30-May-19 17:57 32.667936 -114.599450 0 223ft 0kts
30-May-19 17:58 32.667936 -114.599450 0 223ft 0kts
30-May-19 17:59 32.667936 -114.599450 0 223ft 0kts
30-May-19 18:00 32.667936 -114.599450 0 223ft 0kts
30-May-19 18:01 32.667936 -114.599450 0 223ft 0kts
30-May-19 18:02 32.667936 -114.599450 0 223ft 0kts
30-May-19 18:03 32.667936 -114.599450 0 223ft 0kts
30-May-19 18:04 32.667936 -114.599450 0 223ft 0kts
30-May-19 18:05 32.667936 -114.599450 0 223ft 0kts
30-May-19 18:06 32.667936 -114.599450 0 223ft 0kts
30-May-19 18:07 32.667936 -114.599450 0 223ft 0kts
30-May-19 18:08 32.667936 -114.599450 0 223ft 0kts
30-May-19 18:09 32.667936 -114.599450 0 223ft 0kts
30-May-19 18:10 32.667936 -114.599450 0 223ft 0kts
30-May-19 18:11 32.667936 -114.599450 0 223ft 0kts
30-May-19 18:12 32.667936 -114.599450 0 223ft 0kts
30-May-19 18:13 32.667936 -114.599450 0 223ft 0kts
30-May-19 18:14 32.667936 -114.599450 0 223ft 0kts
30-May-19 18:15 32.667936 -114.599450 0 223ft 0kts
30-May-19 18:16 32.667936 -114.599450 0 223ft 0kts
30-May-19 18:17 32.667936 -114.599450 0 223ft 0kts
30-May-19 18:18 32.667936 -114.599450 0 223ft 0kts
30-May-19 18:19 32.667936 -114.599450 0 223ft 0kts
30-May-19 18:20 32.667936 -114.599450 0 223ft 0kts
30-May-19 18:21 32.667936 -114.599450 0 223ft 0kts
30-May-19 18:22 32.667936 -114.599450 0 223ft 0kts
30-May-19 18:23 32.667936 -114.599450 0 223ft 0kts
30-May-19 18:24 32.667616 -114.599451 0 223ft 2kts
30-May-19 18:25 32.667606 -114.599451 0 223ft 0kts
30-May-19 18:26 32.667606 -114.599451 0 223ft 0kts
30-May-19 18:27 32.667606 -114.599451 0 223ft 0kts
30-May-19 18:28 32.667606 -114.599451 0 223ft 0kts
30-May-19 18:29 32.667606 -114.599451 0 223ft 0kts
30-May-19 18:30 32.667718 -114.599335 105 223ft 4kts
30-May-19 18:31 32.667366 -114.593522 89 223ft 25kts
30-May-19 18:32 32.667377 -114.592627 89 223ft 0kts
30-May-19 18:33 32.667377 -114.592627 89 223ft 0kts
30-May-19 18:34 32.667386 -114.591994 89 223ft 8kts
30-May-19 18:35 32.655816 -114.604734 223 400ft 145kts
30-May-19 18:36 32.627327 -114.652399 276 2705ft 195kts
30-May-19 18:37 32.673744 -114.667457 24 5490ft 206kts
30-May-19 18:38 32.724969 -114.633345 31 7863ft 211kts
30-May-19 18:39 32.779462 -114.638195 317 9881ft 219kts
30-May-19 18:40 32.820528 -114.696076 305 11629ft 247kts
30-May-19 18:41 32.860624 -114.766217 301 13389ft 258kts
30-May-19 18:42 32.900526 -114.837795 302 15042ft 260kts
30-May-19 18:43 32.940814 -114.909868 301 16370ft 262kts
30-May-19 18:44 32.981346 -114.982460 301 17604ft 264kts
30-May-19 18:45 33.022089 -115.055546 301 18683ft 266kts
30-May-19 18:46 33.063144 -115.129346 301 19612ft 269kts
30-May-19 18:47 33.104568 -115.203962 301 20428ft 271kts
30-May-19 18:48 33.146404 -115.279481 300 21201ft 273kts
30-May-19 18:49 33.188521 -115.355635 300 21889ft 275kts
30-May-19 18:50 33.230793 -115.432233 300 22501ft 277kts
30-May-19 18:51 33.273213 -115.509334 300 23058ft 279kts
30-May-19 18:52 33.316048 -115.587194 300 23553ft 281kts
30-May-19 18:53 33.359363 -115.666302 299 23788ft 290kts
30-May-19 18:54 33.404388 -115.748693 300 23805ft 303kts
30-May-19 18:55 33.451325 -115.834600 300 23801ft 311kts
30-May-19 18:56 33.499001 -115.922157 300 23793ft 316kts
30-May-19 18:57 33.547206 -116.010814 300 23785ft 319kts
30-May-19 18:58 33.595511 -116.099969 300 23779ft 320kts
30-May-19 18:59 33.649070 -116.185196 314 23777ft 325kts
30-May-19 19:00 33.716445 -116.257876 313 23784ft 325kts
30-May-19 19:01 33.782616 -116.332154 314 22989ft 328kts
30-May-19 19:02 33.848918 -116.406884 311 21281ft 325kts
30-May-19 19:03 33.873254 -116.506498 273 19582ft 319kts
30-May-19 19:04 33.878791 -116.613441 273 17794ft 320kts
30-May-19 19:05 33.883797 -116.720213 273 16034ft 319kts
30-May-19 19:06 33.888601 -116.826244 271 14309ft 315kts
30-May-19 19:07 33.865439 -116.922364 247 13959ft 292kts
30-May-19 19:08 33.834911 -117.012043 247 13965ft 289kts
30-May-19 19:09 33.804764 -117.101433 248 13380ft 285kts
30-May-19 19:10 33.777488 -117.190085 261 11853ft 277kts
30-May-19 19:11 33.777539 -117.279738 270 10430ft 253kts
30-May-19 19:12 33.778650 -117.357798 267 8805ft 218kts
30-May-19 19:13 33.779077 -117.428334 266 7998ft 206kts
30-May-19 19:14 33.779632 -117.497868 266 7950ft 210kts
30-May-19 19:15 33.785505 -117.566026 286 6904ft 205kts
30-May-19 19:16 33.816040 -117.621248 303 5809ft 177kts
30-May-19 19:17 33.846417 -117.671583 302 5322ft 190kts
30-May-19 19:18 33.864461 -117.725633 240 4021ft 170kts
30-May-19 19:19 33.828927 -117.765640 215 3060ft 166kts
30-May-19 19:20 33.792311 -117.794032 210 2466ft 147kts
30-May-19 19:21 33.758100 -117.816568 207 1767ft 131kts
30-May-19 19:22 33.725372 -117.837347 207 1019ft 124kts
30-May-19 19:23 33.694286 -117.857035 207 358ft 122kts
30-May-19 19:24 33.671616 -117.871423 207 63ft 34kts
30-May-19 19:25 33.669233 -117.871714 127 63ft 0kts
30-May-19 19:26 33.670501 -117.869479 39 63ft 18kts
30-May-19 19:27 33.674005 -117.866538 28 63ft 21kts
30-May-19 19:28 33.678861 -117.863479 28 63ft 17kts
30-May-19 19:29 33.682554 -117.860887 99 63ft 4kts
30-May-19 19:31 33.682385 -117.860452 116 63ft 0kts
30-May-19 19:32 33.682385 -117.860452 116 63ft 0kts
30-May-19 19:33 33.682385 -117.860452 116 63ft 0kts
30-May-19 19:34 33.682385 -117.860452 116 63ft 0kts
30-May-19 19:35 33.682385 -117.860452 116 63ft 0kts

Navigation Log

Ident Type
Flight plan parsing failed, navigation log unavailable